Time;durP1;ratioP1;P1;durP2;ratioP2;P2;SDS_P1;SDS_P2;PMS_P1;PMS_P2;Temp;Humidity;BMP_temperature;BMP_pressure;BME280_temperature;BME280_humidity;BME280_pressure;Samples;Min_cycle;Max_cycle;Signal;HPM_P1;HPM_P2
2023/05/11 00:02:29;;;;;;;15.10;8.85;;;17.20;99.90;;;;;;5091773;28;20039;-75
2023/05/11 00:05:33;;;;;;;13.10;8.65;;;17.20;99.90;;;;;;5091799;28;20047;-74
2023/05/11 00:08:37;;;;;;;16.20;8.45;;;17.20;99.90;;;;;;5091490;28;20403;-74
2023/05/11 00:11:41;;;;;;;14.02;9.15;;;17.20;99.90;;;;;;5091788;28;20510;-74
2023/05/11 00:14:45;;;;;;;15.02;7.95;;;17.10;99.90;;;;;;5091468;28;20055;-74
2023/05/11 00:17:49;;;;;;;12.20;7.95;;;17.20;99.90;;;;;;5091503;28;20047;-75
2023/05/11 00:20:53;;;;;;;12.52;7.40;;;17.20;99.90;;;;;;5091669;28;20039;-74
2023/05/11 00:23:57;;;;;;;10.98;7.80;;;17.10;99.90;;;;;;5091660;28;20047;-74
2023/05/11 00:27:01;;;;;;;11.52;8.18;;;17.30;99.90;;;;;;5091086;28;20050;-74
2023/05/11 00:30:06;;;;;;;11.63;8.05;;;17.30;99.90;;;;;;5091432;28;20051;-74
2023/05/11 00:33:10;;;;;;;12.65;6.47;;;17.30;99.90;;;;;;5091356;28;20039;-74
2023/05/11 00:36:14;;;;;;;12.10;6.60;;;17.30;99.90;;;;;;5091252;28;20043;-74
2023/05/11 00:39:17;;;;;;;13.43;6.90;;;17.50;99.90;;;;;;5091265;28;20047;-74
2023/05/11 00:42:21;;;;;;;11.40;6.32;;;17.60;99.90;;;;;;5091135;28;20154;-75
2023/05/11 00:45:25;;;;;;;10.30;6.13;;;17.60;99.90;;;;;;5091073;28;20047;-74
2023/05/11 00:48:30;;;;;;;11.45;6.35;;;17.60;99.90;;;;;;5091316;28;20047;-74
2023/05/11 00:51:34;;;;;;;15.70;6.13;;;17.60;99.90;;;;;;5090321;28;20047;-74
2023/05/11 00:54:39;;;;;;;17.13;7.05;;;17.70;99.90;;;;;;5090514;28;20039;-74
2023/05/11 00:57:44;;;;;;;14.27;6.65;;;17.70;99.90;;;;;;5090193;28;20054;-74
2023/05/11 01:00:48;;;;;;;13.27;6.65;;;17.70;99.90;;;;;;5090933;28;20047;-74
2023/05/11 01:03:52;;;;;;;17.80;6.85;;;17.70;99.90;;;;;;5090074;28;20047;-74
2023/05/11 01:07:15;;;;;;;14.27;7.63;;;17.60;99.90;;;;;;5090971;28;20051;-75
2023/05/11 01:10:22;;;;;;;14.30;6.95;;;17.60;99.90;;;;;;5090086;28;20047;-74
2023/05/11 01:13:32;;;;;;;16.55;7.03;;;17.60;99.90;;;;;;5090119;28;20047;-74
2023/05/11 01:16:39;;;;;;;11.35;6.53;;;17.60;99.90;;;;;;5090801;28;20518;-74
2023/05/11 01:19:53;;;;;;;10.45;6.43;;;17.60;99.90;;;;;;5090912;28;20506;-74
2023/05/11 01:23:07;;;;;;;12.52;6.93;;;17.60;99.90;;;;;;5093386;28;20043;-74
2023/05/11 01:26:45;;;;;;;12.52;8.38;;;17.60;99.90;;;;;;5094760;28;20051;-74
2023/05/11 01:30:00;;;;;;;12.73;8.48;;;17.40;99.90;;;;;;5094065;28;20047;-74
2023/05/11 01:33:11;;;;;;;11.35;7.68;;;17.30;99.90;;;;;;5094108;28;20043;-74
2023/05/11 01:36:15;;;;;;;13.35;8.32;;;17.30;99.90;;;;;;5094901;28;20051;-74
2023/05/11 01:39:33;;;;;;;14.75;7.30;;;17.20;99.90;;;;;;5093861;28;20047;-74
2023/05/11 01:42:43;;;;;;;12.50;7.03;;;17.20;99.90;;;;;;5094555;28;20043;-74
2023/05/11 01:45:49;;;;;;;11.73;7.22;;;17.30;99.90;;;;;;5094437;28;20050;-74
2023/05/11 01:48:56;;;;;;;15.32;6.82;;;17.30;99.90;;;;;;5094372;28;20383;-74
2023/05/11 01:52:01;;;;;;;15.50;7.55;;;17.20;99.90;;;;;;5093575;28;20054;-75
2023/05/11 01:55:08;;;;;;;12.93;7.25;;;17.20;99.90;;;;;;5093653;28;20043;-74
2023/05/11 01:58:15;;;;;;;12.55;8.02;;;17.20;99.90;;;;;;5094073;28;20432;-74
2023/05/11 02:01:19;;;;;;;11.38;7.80;;;17.30;99.90;;;;;;5094436;28;20043;-74
2023/05/11 02:04:24;;;;;;;10.55;7.60;;;17.20;99.90;;;;;;5094156;28;20039;-74
2023/05/11 02:07:30;;;;;;;10.40;7.25;;;17.30;99.90;;;;;;5094070;28;20051;-74
2023/05/11 02:10:35;;;;;;;19.27;9.20;;;17.20;99.90;;;;;;5093150;28;20039;-74
2023/05/11 02:13:43;;;;;;;15.70;7.65;;;17.20;99.90;;;;;;5093231;28;20058;-74
2023/05/11 02:16:48;;;;;;;13.20;7.20;;;17.20;99.90;;;;;;5093295;28;20059;-74
2023/05/11 02:19:54;;;;;;;11.75;7.53;;;17.20;99.90;;;;;;5093044;28;20106;-75
2023/05/11 02:23:00;;;;;;;12.63;7.72;;;17.20;99.90;;;;;;5093692;28;20047;-74
2023/05/11 02:26:07;;;;;;;12.63;7.60;;;17.20;99.90;;;;;;5093591;28;20055;-74
2023/05/11 02:29:11;;;;;;;19.42;7.07;;;17.20;99.90;;;;;;5093619;28;20054;-74
2023/05/11 02:32:19;;;;;;;15.88;7.85;;;17.10;99.90;;;;;;5093849;28;20391;-74
2023/05/11 02:35:27;;;;;;;13.18;7.95;;;17.10;99.90;;;;;;5092762;28;20043;-74
2023/05/11 02:38:33;;;;;;;9.23;7.55;;;17.10;99.90;;;;;;5092369;28;20054;-74
2023/05/11 02:41:43;;;;;;;14.15;7.60;;;17.00;99.90;;;;;;5092860;28;20031;-74
2023/05/11 02:45:03;;;;;;;15.45;8.23;;;17.00;99.90;;;;;;5093687;28;20058;-74
2023/05/11 02:48:20;;;;;;;20.73;8.10;;;17.00;99.90;;;;;;5092440;28;20134;-74
2023/05/11 02:51:38;;;;;;;15.13;8.18;;;17.00;99.90;;;;;;5093263;28;20414;-74
2023/05/11 02:54:43;;;;;;;14.15;9.23;;;16.90;99.90;;;;;;5093141;28;20039;-74
2023/05/11 02:57:47;;;;;;;13.50;8.60;;;16.80;99.90;;;;;;5092549;28;20039;-74
2023/05/11 03:00:52;;;;;;;17.80;7.88;;;16.80;99.90;;;;;;5092375;28;20058;-74
2023/05/11 03:03:56;;;;;;;15.82;8.75;;;16.80;99.90;;;;;;5093008;28;20051;-74
2023/05/11 03:07:03;;;;;;;13.30;7.70;;;16.80;99.90;;;;;;5091816;28;20063;-74
2023/05/11 03:10:07;;;;;;;11.98;8.30;;;16.80;99.90;;;;;;5092950;28;20047;-74
2023/05/11 03:13:16;;;;;;;15.32;8.10;;;16.90;99.90;;;;;;5092788;28;20391;-74
2023/05/11 03:16:21;;;;;;;18.95;9.10;;;16.90;99.90;;;;;;5093014;28;20047;-74
2023/05/11 03:19:27;;;;;;;17.52;7.60;;;16.90;99.90;;;;;;5091760;28;20043;-75
2023/05/11 03:22:32;;;;;;;13.13;7.60;;;16.90;99.90;;;;;;5091822;28;20042;-74
2023/05/11 03:25:36;;;;;;;18.23;8.02;;;16.90;99.90;;;;;;5091845;28;20403;-74
2023/05/11 03:28:42;;;;;;;16.45;8.00;;;16.90;99.90;;;;;;5092321;28;20055;-74
2023/05/11 03:31:46;;;;;;;12.98;7.97;;;16.80;99.90;;;;;;5092502;28;20110;-74
2023/05/11 03:34:51;;;;;;;16.83;8.70;;;16.80;99.90;;;;;;5092231;28;20062;-74
2023/05/11 03:37:57;;;;;;;15.25;9.57;;;16.80;99.90;;;;;;5091626;28;20039;-73
2023/05/11 03:41:02;;;;;;;16.42;9.18;;;16.70;99.90;;;;;;5091720;28;20055;-74
2023/05/11 03:44:10;;;;;;;15.68;9.07;;;16.70;99.90;;;;;;5091204;28;20043;-74
2023/05/11 03:47:17;;;;;;;17.00;8.65;;;16.70;99.90;;;;;;5091230;28;20055;-73
2023/05/11 03:50:22;;;;;;;16.55;7.80;;;16.60;99.90;;;;;;5091147;28;20051;-75
2023/05/11 03:53:26;;;;;;;19.88;6.88;;;16.70;99.90;;;;;;5091481;28;20055;-74
2023/05/11 03:56:30;;;;;;;17.05;6.93;;;16.70;99.90;;;;;;5091145;28;20047;-74
2023/05/11 03:59:35;;;;;;;18.50;7.03;;;17.50;99.90;;;;;;5091930;28;20047;-74
2023/05/11 04:02:39;;;;;;;21.08;7.07;;;;;;;;;;5091289;28;20035;-74
2023/05/11 04:05:44;;;;;;;22.63;7.80;;;16.80;99.90;;;;;;5090733;28;20043;-74
2023/05/11 04:08:49;;;;;;;16.10;7.72;;;16.80;99.90;;;;;;5090994;28;20118;-74
2023/05/11 04:11:53;;;;;;;19.92;8.88;;;16.70;99.90;;;;;;5091804;28;20043;-74
2023/05/11 04:14:58;;;;;;;13.95;7.50;;;16.70;99.90;;;;;;5090727;28;20065;-75
2023/05/11 04:18:03;;;;;;;18.35;8.00;;;16.60;99.90;;;;;;5090761;28;20067;-74
2023/05/11 04:21:06;;;;;;;14.75;7.40;;;16.60;99.90;;;;;;5091503;28;20198;-75
2023/05/11 04:24:10;;;;;;;17.30;8.07;;;16.60;99.90;;;;;;5090477;28;20039;-74
2023/05/11 04:27:15;;;;;;;18.17;7.55;;;16.60;99.90;;;;;;5091244;28;20051;-74
2023/05/11 04:30:20;;;;;;;19.58;5.40;;;16.70;99.90;;;;;;5091514;28;20039;-74
2023/05/11 04:33:24;;;;;;;20.33;5.57;;;17.10;99.90;;;;;;5090675;28;20396;-74
2023/05/11 04:36:28;;;;;;;15.32;4.57;;;17.80;99.90;;;;;;5090317;28;20043;-74
2023/05/11 04:39:33;;;;;;;16.35;5.20;;;18.60;99.90;;;;;;5090228;28;20038;-74
2023/05/11 04:42:38;;;;;;;12.55;5.05;;;19.30;99.90;;;;;;5090579;28;20043;-74
2023/05/11 04:45:52;;;;;;;21.17;5.20;;;19.70;99.90;;;;;;5090504;28;20050;-74
2023/05/11 04:49:03;;;;;;;13.90;5.07;;;20.30;99.90;;;;;;5090278;28;20055;-75
2023/05/11 04:52:08;;;;;;;13.48;4.97;;;20.70;99.90;;;;;;5090352;28;20051;-75
2023/05/11 04:55:12;;;;;;;15.35;5.10;;;21.30;99.90;;;;;;5090236;28;20050;-74
2023/05/11 04:58:16;;;;;;;8.48;4.43;;;21.80;99.90;;;;;;5089706;28;20039;-74
2023/05/11 05:01:20;;;;;;;16.33;4.30;;;22.40;99.60;;;;;;5090132;28;20392;-74
2023/05/11 05:04:24;;;;;;;12.43;4.88;;;22.60;99.40;;;;;;5091066;28;20499;-75
2023/05/11 05:07:28;;;;;;;13.35;4.93;;;23.10;99.00;;;;;;5089873;28;20408;-74
2023/05/11 05:10:33;;;;;;;13.98;5.15;;;23.40;97.90;;;;;;5089981;28;20040;-75
2023/05/11 05:13:38;;;;;;;13.65;5.47;;;23.00;97.50;;;;;;5090854;28;20051;-76
2023/05/11 05:16:42;;;;;;;11.88;5.53;;;23.00;98.30;;;;;;5088825;28;20055;-73
2023/05/11 05:19:46;;;;;;;16.88;5.20;;;22.60;98.20;;;;;;5091590;28;20047;-69
2023/05/11 05:22:50;;;;;;;12.68;4.95;;;22.00;98.40;;;;;;5089602;28;20055;-72
2023/05/11 05:25:54;;;;;;;15.95;5.50;;;21.30;99.80;;;;;;5090531;28;20043;-71
2023/05/11 05:28:58;;;;;;;12.85;6.03;;;20.70;99.90;;;;;;5089817;28;20403;-71
2023/05/11 05:32:03;;;;;;;14.50;5.32;;;20.20;99.90;;;;;;5089781;28;20040;-70
2023/05/11 05:35:07;;;;;;;11.05;6.35;;;19.90;99.90;;;;;;5089799;28;20039;-70
2023/05/11 05:38:11;;;;;;;12.93;5.93;;;19.70;99.90;;;;;;5090121;28;20441;-69
2023/05/11 05:41:16;;;;;;;13.10;5.65;;;19.70;99.90;;;;;;5089897;28;20047;-70
2023/05/11 05:44:23;;;;;;;16.67;5.60;;;19.80;99.90;;;;;;5089953;28;20047;-72
2023/05/11 05:47:27;;;;;;;13.85;5.10;;;19.70;99.90;;;;;;5090544;28;20399;-70
2023/05/11 05:50:32;;;;;;;16.65;6.13;;;19.70;99.90;;;;;;5089752;28;20047;-71
2023/05/11 05:53:36;;;;;;;22.60;6.20;;;19.70;99.90;;;;;;5090260;28;20047;-71
2023/05/11 05:56:41;;;;;;;15.93;5.20;;;19.90;99.90;;;;;;5089504;28;20043;-72
2023/05/11 05:59:45;;;;;;;10.75;4.35;;;20.20;99.90;;;;;;5089339;28;20047;-71
2023/05/11 06:02:50;;;;;;;39.55;5.20;;;20.60;99.90;;;;;;5089738;28;20047;-70
2023/05/11 06:06:01;;;;;;;16.48;5.18;;;20.70;99.90;;;;;;5078972;28;20047;-72
2023/05/11 06:09:05;;;;;;;22.73;5.03;;;20.70;99.90;;;;;;5092223;28;20047;-71
2023/05/11 06:12:09;;;;;;;13.68;4.75;;;20.90;99.90;;;;;;5093373;28;20043;-69
2023/05/11 06:15:18;;;;;;;28.55;4.88;;;20.80;99.90;;;;;;5081681;28;20068;-70
2023/05/11 06:18:27;;;;;;;15.68;4.95;;;20.60;99.90;;;;;;5092821;28;20051;-70
2023/05/11 06:21:32;;;;;;;24.52;5.13;;;20.60;99.90;;;;;;5093016;28;20058;-70
2023/05/11 06:24:36;;;;;;;17.15;4.80;;;20.50;99.90;;;;;;5092928;28;20412;-70
2023/05/11 06:27:41;;;;;;;19.20;5.07;;;20.30;99.90;;;;;;5092703;28;20059;-71
2023/05/11 06:30:45;;;;;;;18.35;4.95;;;20.30;99.90;;;;;;5093392;28;20039;-69
2023/05/11 06:33:49;;;;;;;21.25;6.25;;;20.30;99.90;;;;;;5092929;28;20066;-71
2023/05/11 06:37:03;;;;;;;23.38;5.35;;;20.20;99.90;;;;;;5092824;28;20046;-71
2023/05/11 06:40:07;;;;;;;17.80;5.15;;;20.10;99.90;;;;;;5093839;28;20388;-68
2023/05/11 06:43:11;;;;;;;27.20;6.38;;;20.10;99.90;;;;;;5093253;28;20043;-68
2023/05/11 06:46:21;;;;;;;21.20;5.18;;;19.90;99.90;;;;;;5092844;28;20513;-69
2023/05/11 06:49:25;;;;;;;21.30;5.28;;;19.80;99.90;;;;;;5092441;28;20047;-71
2023/05/11 06:52:30;;;;;;;30.63;6.95;;;20.00;99.90;;;;;;5092300;28;20047;-70
2023/05/11 06:55:38;;;;;;;20.00;3.70;;;20.30;99.90;;;;;;5081401;28;20051;-71
2023/05/11 06:58:42;;;;;;;15.80;3.60;;;20.90;99.90;;;;;;5093127;28;20384;-72
2023/05/11 07:01:46;;;;;;;16.67;3.30;;;21.30;99.90;;;;;;5092983;28;20046;-69
2023/05/11 07:04:50;;;;;;;20.25;4.60;;;21.50;99.90;;;;;;5093112;28;20047;-70
2023/05/11 07:07:54;;;;;;;12.85;2.63;;;21.30;99.90;;;;;;5092780;28;20047;-69
2023/05/11 07:10:58;;;;;;;14.27;4.43;;;21.10;99.90;;;;;;5093000;28;20043;-68
2023/05/11 07:14:02;;;;;;;15.73;3.80;;;20.90;99.90;;;;;;5093206;28;20051;-70
2023/05/11 07:17:06;;;;;;;16.25;3.97;;;20.70;99.90;;;;;;5093216;28;20039;-70
2023/05/11 07:20:11;;;;;;;11.63;3.80;;;20.50;99.90;;;;;;5093649;28;20047;-69
2023/05/11 07:23:16;;;;;;;9.55;2.88;;;20.40;99.90;;;;;;5093296;28;20043;-71
2023/05/11 07:26:20;;;;;;;14.30;2.65;;;20.30;99.90;;;;;;5092975;28;20047;-72
2023/05/11 07:29:25;;;;;;;19.35;3.75;;;20.20;99.90;;;;;;5092596;28;20047;-69
2023/05/11 07:32:29;;;;;;;15.73;3.30;;;20.10;99.90;;;;;;5092533;28;20403;-68
2023/05/11 07:35:33;;;;;;;11.40;2.63;;;20.00;99.90;;;;;;5092470;28;20051;-67
2023/05/11 07:38:37;;;;;;;14.07;3.03;;;19.80;99.90;;;;;;5092240;28;20043;-67
2023/05/11 07:41:41;;;;;;;24.10;3.72;;;19.70;99.90;;;;;;5092338;28;20546;-71
2023/05/11 07:44:45;;;;;;;19.60;3.67;;;19.60;99.90;;;;;;5092348;28;20501;-70
2023/05/11 07:47:49;;;;;;;20.15;3.72;;;19.60;99.90;;;;;;5091862;28;20518;-71
2023/05/11 07:50:53;;;;;;;19.23;3.30;;;19.60;99.90;;;;;;5091984;28;20059;-69
2023/05/11 07:53:57;;;;;;;14.10;3.22;;;19.60;99.90;;;;;;5091155;28;20047;-69
2023/05/11 07:57:02;;;;;;;17.75;3.65;;;19.60;99.90;;;;;;5092195;28;20047;-70
2023/05/11 08:00:06;;;;;;;21.25;4.05;;;19.60;99.90;;;;;;5079574;28;20050;-69
2023/05/11 08:03:16;;;;;;;17.15;5.13;;;19.60;99.90;;;;;;5090947;28;20043;-68
2023/05/11 08:06:19;;;;;;;16.55;3.83;;;19.70;99.90;;;;;;5091865;28;20051;-69
2023/05/11 08:09:23;;;;;;;15.50;3.47;;;19.90;99.90;;;;;;5091678;28;20067;-69
2023/05/11 08:12:28;;;;;;;15.38;3.08;;;20.00;99.90;;;;;;5091693;28;20047;-72
2023/05/11 08:15:32;;;;;;;13.23;3.58;;;20.10;99.90;;;;;;5091906;28;20051;-73
2023/05/11 08:18:36;;;;;;;14.30;3.55;;;20.20;99.90;;;;;;5091699;28;20042;-70
2023/05/11 08:21:42;;;;;;;20.27;3.00;;;20.10;99.90;;;;;;5091592;28;20471;-68
2023/05/11 08:24:46;;;;;;;9.30;2.80;;;20.10;99.90;;;;;;5091455;28;20499;-69
2023/05/11 08:27:50;;;;;;;12.52;2.55;;;20.20;99.90;;;;;;5090934;28;20051;-70
2023/05/11 08:30:56;;;;;;;14.82;2.70;;;20.40;99.90;;;;;;5090650;28;20047;-71
2023/05/11 08:34:00;;;;;;;11.05;2.17;;;20.80;99.90;;;;;;5091591;28;20047;-71
2023/05/11 08:37:04;;;;;;;19.67;2.10;;;21.00;99.90;;;;;;5091555;28;20039;-71
2023/05/11 08:40:12;;;;;;;16.98;2.40;;;21.10;99.90;;;;;;5091551;28;20047;-69
2023/05/11 08:43:18;;;;;;;14.23;2.10;;;21.10;99.90;;;;;;5091505;28;20055;-69
2023/05/11 08:46:25;;;;;;;15.13;2.30;;;21.10;99.90;;;;;;5091166;28;20067;-70
2023/05/11 08:49:29;;;;;;;13.70;2.17;;;21.10;99.90;;;;;;5091284;28;20395;-70
2023/05/11 08:52:33;;;;;;;11.63;1.65;;;21.00;99.90;;;;;;5091279;28;20047;-68
2023/05/11 08:55:39;;;;;;;9.60;2.40;;;20.90;99.90;;;;;;5090874;28;20052;-70
2023/05/11 08:58:46;;;;;;;14.27;3.08;;;20.80;99.90;;;;;;5091249;28;20387;-69
2023/05/11 09:01:51;;;;;;;14.80;2.80;;;20.70;99.90;;;;;;5090937;28;20043;-72
2023/05/11 09:04:56;;;;;;;7.05;2.45;;;20.70;99.90;;;;;;5091158;28;20039;-70
2023/05/11 09:08:03;;;;;;;8.10;1.73;;;20.70;99.90;;;;;;5090782;28;20835;-71
2023/05/11 09:11:07;;;;;;;10.68;2.38;;;20.70;99.90;;;;;;5091152;28;20043;-69
2023/05/11 09:14:12;;;;;;;17.05;2.30;;;20.80;99.90;;;;;;5090808;28;20043;-70
2023/05/11 09:17:16;;;;;;;20.88;3.03;;;21.20;99.90;;;;;;5091102;28;20047;-71
2023/05/11 09:20:28;;;;;;;16.45;2.72;;;21.60;99.90;;;;;;5090718;28;20043;-69
2023/05/11 09:23:32;;;;;;;18.02;2.63;;;22.00;99.90;;;;;;5090800;28;20050;-70
2023/05/11 09:26:36;;;;;;;18.35;2.80;;;22.30;99.10;;;;;;5078326;28;20043;-70
2023/05/11 09:29:40;;;;;;;13.32;2.53;;;22.60;98.50;;;;;;5090491;28;20518;-70
2023/05/11 09:32:49;;;;;;;12.25;1.80;;;22.80;98.30;;;;;;5089963;28;20499;-72
2023/05/11 09:35:54;;;;;;;13.98;2.40;;;23.00;98.50;;;;;;5090911;28;20055;-71
2023/05/11 09:39:01;;;;;;;13.80;1.95;;;23.30;97.80;;;;;;5090388;28;20039;-71
2023/05/11 09:42:20;;;;;;;8.30;2.42;;;23.40;96.80;;;;;;5090927;28;20050;-71
2023/05/11 09:45:39;;;;;;;14.35;2.20;;;23.40;96.40;;;;;;5094800;28;20059;-73
2023/05/11 09:48:43;;;;;;;13.90;2.50;;;23.20;96.70;;;;;;5094388;28;20150;-70
2023/05/11 09:51:46;;;;;;;13.75;1.98;;;23.30;97.20;;;;;;5094782;28;20054;-70
2023/05/11 09:54:51;;;;;;;26.63;7.10;;;23.40;95.90;;;;;;5093553;28;20054;-71
2023/05/11 09:57:56;;;;;;;12.98;2.40;;;23.50;95.50;;;;;;5093593;28;20392;-74
2023/05/11 10:01:01;;;;;;;8.43;2.33;;;23.50;95.10;;;;;;5094211;28;20601;-72
2023/05/11 10:04:07;;;;;;;9.93;2.45;;;23.40;95.30;;;;;;5094464;28;20043;-71
2023/05/11 10:07:21;;;;;;;21.80;2.65;;;23.40;95.00;;;;;;5093944;28;20398;-71
2023/05/11 10:10:29;;;;;;;13.18;5.72;;;23.40;95.00;;;;;;5094493;28;20047;-72
2023/05/11 10:13:35;;;;;;;12.52;2.58;;;23.50;95.00;;;;;;5094228;28;20043;-72
2023/05/11 10:16:41;;;;;;;11.25;1.95;;;23.60;95.60;;;;;;5094302;28;20051;-71
2023/05/11 10:19:47;;;;;;;10.88;2.67;;;23.50;95.60;;;;;;5093254;28;20054;-71
2023/05/11 10:22:54;;;;;;;30.88;6.78;;;23.40;95.60;;;;;;5092863;28;20043;-71
2023/05/11 10:25:59;;;;;;;12.52;3.58;;;23.50;96.10;;;;;;5094127;28;20376;-71
2023/05/11 10:29:04;;;;;;;15.18;2.40;;;23.50;96.30;;;;;;5093334;28;20078;-71
2023/05/11 10:32:10;;;;;;;10.85;2.33;;;23.70;95.90;;;;;;5093691;28;20070;-72
2023/05/11 10:35:15;;;;;;;9.82;2.80;;;23.80;95.00;;;;;;5093592;28;20039;-70
2023/05/11 10:38:20;;;;;;;12.65;2.47;;;23.90;94.80;;;;;;5093762;28;20511;-69
2023/05/11 10:41:32;;;;;;;13.35;2.83;;;23.80;94.60;;;;;;5093439;28;20064;-69
2023/05/11 10:44:57;;;;;;;11.65;2.78;;;23.60;94.90;;;;;;5093375;28;20035;-69
2023/05/11 10:48:26;;;;;;;12.10;2.33;;;23.40;94.70;;;;;;5093426;28;20051;-72
2023/05/11 10:51:56;;;;;;;17.25;2.83;;;23.50;94.30;;;;;;5093175;28;20047;-72
2023/05/11 10:55:21;;;;;;;14.73;2.30;;;23.60;93.90;;;;;;5091873;28;20043;-71
2023/05/11 10:58:46;;;;;;;10.27;2.10;;;23.60;94.10;;;;;;5093145;28;20039;-70
2023/05/11 11:01:53;;;;;;;13.18;3.13;;;23.70;94.60;;;;;;5093321;28;20131;-70
2023/05/11 11:04:59;;;;;;;13.60;2.38;;;23.70;93.70;;;;;;5092832;28;20050;-72
2023/05/11 11:08:07;;;;;;;11.57;2.38;;;23.70;93.70;;;;;;5092159;28;20526;-71
2023/05/11 11:11:32;;;;;;;13.52;2.90;;;23.70;93.80;;;;;;5092508;28;20055;-72
2023/05/11 11:14:54;;;;;;;14.68;3.05;;;23.70;94.50;;;;;;5091359;28;20392;-73
2023/05/11 11:18:23;;;;;;;15.18;2.80;;;23.60;94.20;;;;;;5093028;28;20044;-72
2023/05/11 11:21:41;;;;;;;11.68;2.50;;;23.60;94.70;;;;;;5092893;28;20055;-74
2023/05/11 11:24:46;;;;;;;22.63;2.80;;;23.60;94.50;;;;;;5093087;28;20502;-73
2023/05/11 11:27:53;;;;;;;17.98;3.75;;;23.60;94.40;;;;;;5091751;28;20055;-74
2023/05/11 11:31:33;;;;;;;17.35;3.58;;;23.40;94.30;;;;;;5092201;28;20396;-71
2023/05/11 11:34:37;;;;;;;17.67;3.75;;;23.30;94.50;;;;;;5092572;28;20043;-72
2023/05/11 11:38:01;;;;;;;14.00;2.63;;;23.40;95.00;;;;;;5092984;28;20043;-72
2023/05/11 11:41:07;;;;;;;15.07;3.33;;;23.50;95.10;;;;;;5092547;28;20047;-72
2023/05/11 11:44:21;;;;;;;12.82;3.60;;;23.40;94.70;;;;;;5092348;28;20387;-72
2023/05/11 11:47:25;;;;;;;12.75;3.20;;;23.50;94.70;;;;;;5092346;28;20304;-72
2023/05/11 11:50:29;;;;;;;18.73;2.92;;;23.50;94.20;;;;;;5092642;28;20043;-72
2023/05/11 11:53:36;;;;;;;21.08;3.30;;;23.50;94.10;;;;;;5092493;28;20431;-72
2023/05/11 11:56:42;;;;;;;21.83;3.53;;;23.50;94.40;;;;;;5091332;28;20047;-73
2023/05/11 11:59:47;;;;;;;19.85;3.40;;;23.40;94.80;;;;;;5092187;28;20039;-71
2023/05/11 12:02:52;;;;;;;18.60;3.10;;;23.50;94.90;;;;;;5089992;28;20058;-73
2023/05/11 12:06:00;;;;;;;19.85;2.75;;;23.50;94.60;;;;;;5077334;28;20039;-72
2023/05/11 12:09:05;;;;;;;25.08;3.78;;;23.40;94.40;;;;;;5089177;28;20054;-72
2023/05/11 12:12:09;;;;;;;16.67;3.20;;;23.30;94.60;;;;;;5089241;28;20360;-71
2023/05/11 12:15:23;;;;;;;15.55;3.78;;;23.30;94.40;;;;;;5090021;28;20494;-71
2023/05/11 12:18:27;;;;;;;19.67;3.22;;;23.20;94.10;;;;;;5089949;28;20047;-73
2023/05/11 12:21:31;;;;;;;15.77;3.30;;;23.20;93.80;;;;;;5089256;28;20043;-71
2023/05/11 12:24:40;;;;;;;14.00;3.47;;;23.20;94.10;;;;;;5089901;28;20051;-71
2023/05/11 12:27:49;;;;;;;14.73;3.22;;;23.10;94.00;;;;;;5090757;28;20403;-71
2023/05/11 12:30:58;;;;;;;14.73;2.60;;;23.10;94.10;;;;;;5091187;28;20058;-72
2023/05/11 12:34:02;;;;;;;16.30;3.47;;;23.10;93.60;;;;;;5090860;28;20043;-72
2023/05/11 12:37:07;;;;;;;25.27;3.80;;;23.20;94.00;;;;;;5091141;28;20063;-72
2023/05/11 12:40:12;;;;;;;26.40;3.35;;;23.10;94.30;;;;;;5091013;28;20055;-72
2023/05/11 12:43:18;;;;;;;15.07;3.47;;;23.00;94.50;;;;;;5091181;28;20047;-73
2023/05/11 12:46:22;;;;;;;20.30;3.90;;;23.00;94.50;;;;;;5090932;28;20042;-72
2023/05/11 12:49:27;;;;;;;22.23;4.05;;;23.00;93.90;;;;;;5090090;28;20058;-73
2023/05/11 12:52:31;;;;;;;22.58;3.47;;;22.90;94.20;;;;;;5091284;28;20044;-72
2023/05/11 12:55:36;;;;;;;22.35;2.63;;;22.90;94.60;;;;;;5091225;28;20482;-72
2023/05/11 12:58:40;;;;;;;14.52;3.42;;;22.90;94.10;;;;;;5090925;28;20039;-72
2023/05/11 13:01:44;;;;;;;17.15;3.80;;;22.90;93.90;;;;;;5090968;28;20510;-72
2023/05/11 13:04:49;;;;;;;21.60;4.03;;;22.80;94.10;;;;;;5091442;28;20502;-73
2023/05/11 13:08:04;;;;;;;22.50;3.28;;;22.70;94.00;;;;;;5091001;28;20055;-74
2023/05/11 13:11:27;;;;;;;17.02;3.05;;;22.60;94.10;;;;;;5091097;28;20054;-70
2023/05/11 13:14:32;;;;;;;15.35;4.03;;;22.60;94.40;;;;;;5089917;28;20043;-72
2023/05/11 13:17:38;;;;;;;15.05;2.92;;;22.60;94.30;;;;;;5091457;28;20063;-71
2023/05/11 13:20:43;;;;;;;19.05;3.38;;;22.50;94.00;;;;;;5095159;28;20047;-71
2023/05/11 13:23:50;;;;;;;21.20;3.92;;;22.50;94.00;;;;;;5095358;28;20043;-71
2023/05/11 13:26:57;;;;;;;21.23;3.30;;;22.40;94.10;;;;;;5095068;28;20388;-72
2023/05/11 13:30:03;;;;;;;15.00;2.65;;;22.40;94.70;;;;;;5094044;28;20051;-70
2023/05/11 13:33:07;;;;;;;20.85;4.03;;;22.30;93.90;;;;;;5094123;28;20039;-70
2023/05/11 13:36:11;;;;;;;26.15;4.57;;;22.10;93.50;;;;;;5094819;28;20047;-69
2023/05/11 13:39:16;;;;;;;24.13;4.00;;;22.20;94.00;;;;;;5094788;28;20043;-71
2023/05/11 13:42:20;;;;;;;27.95;3.42;;;22.20;94.20;;;;;;5094617;28;20043;-71
2023/05/11 13:45:24;;;;;;;21.33;4.03;;;22.30;93.60;;;;;;5082022;28;20043;-72
2023/05/11 13:48:29;;;;;;;20.25;3.83;;;22.30;93.60;;;;;;5094580;28;20059;-71
2023/05/11 13:51:33;;;;;;;23.63;4.97;;;22.30;93.90;;;;;;5094601;28;20039;-74
2023/05/11 13:54:38;;;;;;;23.10;3.42;;;22.30;93.30;;;;;;5093567;28;20043;-68
2023/05/11 13:57:42;;;;;;;18.77;3.50;;;22.30;93.30;;;;;;5094387;28;20047;-73
2023/05/11 14:00:47;;;;;;;25.27;3.55;;;22.30;93.10;;;;;;5094562;28;20038;-71
2023/05/11 14:03:52;;;;;;;31.67;4.80;;;22.30;92.90;;;;;;5094745;28;20047;-71
2023/05/11 14:06:57;;;;;;;18.23;4.60;;;22.20;93.40;;;;;;5093456;28;20047;-70
2023/05/11 14:10:02;;;;;;;23.85;5.13;;;22.20;93.80;;;;;;5094151;28;20062;-72
2023/05/11 14:13:07;;;;;;;24.52;4.50;;;22.20;93.70;;;;;;5094185;28;20058;-72
2023/05/11 14:16:11;;;;;;;22.48;4.32;;;22.20;93.40;;;;;;5094108;28;20063;-69
2023/05/11 14:19:15;;;;;;;19.10;3.72;;;22.30;93.20;;;;;;5093899;28;20055;-71
2023/05/11 14:22:19;;;;;;;32.33;4.13;;;22.40;93.30;;;;;;5094131;28;20047;-71
2023/05/11 14:25:26;;;;;;;18.88;3.67;;;22.40;93.00;;;;;;5093908;28;20059;-71
2023/05/11 14:28:31;;;;;;;25.05;4.03;;;22.50;93.30;;;;;;5092646;28;20055;-72
2023/05/11 14:31:35;;;;;;;19.48;3.42;;;22.60;93.40;;;;;;5092652;28;20043;-72
2023/05/11 14:34:39;;;;;;;21.73;4.03;;;22.60;92.20;;;;;;5093908;28;20395;-73
2023/05/11 14:37:43;;;;;;;18.25;3.63;;;22.60;92.30;;;;;;5093512;28;20054;-70
2023/05/11 14:40:48;;;;;;;19.00;3.13;;;22.60;92.20;;;;;;5093567;28;20043;-71
2023/05/11 14:43:52;;;;;;;23.48;3.78;;;22.60;92.40;;;;;;5092626;28;20051;-70
2023/05/11 14:46:56;;;;;;;14.43;4.15;;;22.60;91.90;;;;;;5093354;28;20048;-71
2023/05/11 14:50:01;;;;;;;26.10;4.57;;;22.60;91.80;;;;;;5092868;28;20047;-69
2023/05/11 14:53:05;;;;;;;17.85;4.03;;;22.60;91.80;;;;;;5093251;28;20043;-68
2023/05/11 14:56:09;;;;;;;21.65;3.67;;;22.60;92.00;;;;;;5093181;28;20058;-71
2023/05/11 14:59:13;;;;;;;16.25;3.30;;;22.50;91.50;;;;;;5093378;28;20055;-70
2023/05/11 15:02:17;;;;;;;25.83;3.95;;;22.50;91.90;;;;;;5093085;28;20058;-69
2023/05/11 15:05:21;;;;;;;20.67;3.40;;;22.40;91.70;;;;;;5093119;28;20499;-69
2023/05/11 15:08:25;;;;;;;26.25;3.92;;;22.40;91.70;;;;;;5092625;28;20067;-70
2023/05/11 15:11:29;;;;;;;23.35;4.03;;;22.40;90.90;;;;;;5092972;28;20047;-70
2023/05/11 15:14:33;;;;;;;15.55;3.63;;;22.30;91.20;;;;;;5093048;28;20404;-70
2023/05/11 15:17:36;;;;;;;17.25;3.15;;;22.20;91.00;;;;;;5092380;28;20491;-69
2023/05/11 15:20:41;;;;;;;22.45;3.75;;;22.20;91.60;;;;;;5092452;28;20047;-72
2023/05/11 15:23:45;;;;;;;24.02;3.50;;;22.20;90.90;;;;;;5092674;28;20039;-71
2023/05/11 15:26:49;;;;;;;15.65;2.75;;;22.20;91.20;;;;;;5091766;28;20483;-70
2023/05/11 15:29:53;;;;;;;19.17;3.30;;;22.10;90.70;;;;;;5092426;28;20090;-71
2023/05/11 15:32:56;;;;;;;16.13;2.97;;;22.10;91.00;;;;;;5092371;28;20051;-70
2023/05/11 15:36:00;;;;;;;21.67;3.28;;;22.00;90.80;;;;;;5092562;28;20047;-70
2023/05/11 15:39:05;;;;;;;26.65;3.13;;;22.00;90.90;;;;;;5092048;28;20047;-70
2023/05/11 15:42:10;;;;;;;20.27;3.25;;;22.00;90.90;;;;;;5091658;28;20490;-69
2023/05/11 15:45:14;;;;;;;16.38;3.13;;;22.00;88.20;;;;;;5091464;28;20074;-68
2023/05/11 15:48:17;;;;;;;18.63;2.67;;;22.00;85.40;;;;;;5091960;28;20190;-68
2023/05/11 15:51:22;;;;;;;16.23;2.95;;;21.90;86.60;;;;;;5091916;28;20043;-70
2023/05/11 15:54:26;;;;;;;20.27;3.30;;;21.90;87.60;;;;;;5092041;28;20063;-68
2023/05/11 15:57:31;;;;;;;18.45;3.40;;;21.90;85.50;;;;;;5092041;28;20043;-68
2023/05/11 16:00:35;;;;;;;23.45;3.15;;;21.80;88.10;;;;;;5091549;28;20059;-68